sensor_id;sensor_type;location;lat;lon;timestamp;pressure;altitude;pressure_sealevel;temperature;humidity
25658;BME280;13517;59.320;18.042;2023-09-30T00:01:16;100017.72;;;14.36;100.00
25658;BME280;13517;59.320;18.042;2023-09-30T00:03:43;100022.00;;;14.39;100.00
25658;BME280;13517;59.320;18.042;2023-09-30T00:06:09;100019.31;;;14.39;100.00
25658;BME280;13517;59.320;18.042;2023-09-30T00:08:34;100010.84;;;14.32;100.00
25658;BME280;13517;59.320;18.042;2023-09-30T00:11:00;100030.88;;;14.41;100.00
25658;BME280;13517;59.320;18.042;2023-09-30T00:13:25;100028.03;;;14.42;100.00
25658;BME280;13517;59.320;18.042;2023-09-30T00:15:50;100025.13;;;14.44;100.00
25658;BME280;13517;59.320;18.042;2023-09-30T00:18:16;100022.44;;;14.44;100.00
25658;BME280;13517;59.320;18.042;2023-09-30T00:20:41;100019.44;;;14.47;100.00
25658;BME280;13517;59.320;18.042;2023-09-30T00:23:07;100016.59;;;14.39;100.00
25658;BME280;13517;59.320;18.042;2023-09-30T00:25:34;100026.59;;;14.48;100.00
25658;BME280;13517;59.320;18.042;2023-09-30T00:27:59;100018.44;;;14.48;100.00
25658;BME280;13517;59.320;18.042;2023-09-30T00:30:24;100023.88;;;14.48;100.00
25658;BME280;13517;59.320;18.042;2023-09-30T00:32:50;100016.84;;;14.46;100.00
25658;BME280;13517;59.320;18.042;2023-09-30T00:35:15;100024.56;;;14.50;100.00
25658;BME280;13517;59.320;18.042;2023-09-30T00:37:41;100030.88;;;14.51;100.00
25658;BME280;13517;59.320;18.042;2023-09-30T00:40:08;100023.72;;;14.50;100.00
25658;BME280;13517;59.320;18.042;2023-09-30T00:42:37;100030.72;;;14.52;100.00
25658;BME280;13517;59.320;18.042;2023-09-30T00:45:04;100025.28;;;14.52;100.00
25658;BME280;13517;59.320;18.042;2023-09-30T00:47:30;100028.00;;;14.52;100.00
25658;BME280;13517;59.320;18.042;2023-09-30T00:49:56;100018.88;;;14.53;100.00
25658;BME280;13517;59.320;18.042;2023-09-30T00:52:22;100029.56;;;14.55;100.00
25658;BME280;13517;59.320;18.042;2023-09-30T00:54:48;100025.44;;;14.51;100.00
25658;BME280;13517;59.320;18.042;2023-09-30T00:57:15;100035.19;;;14.53;100.00
25658;BME280;13517;59.320;18.042;2023-09-30T00:59:41;99953.63;;;14.04;100.00
25658;BME280;13517;59.320;18.042;2023-09-30T01:02:07;100015.72;;;14.48;100.00
25658;BME280;13517;59.320;18.042;2023-09-30T01:04:33;100027.16;;;14.52;100.00
25658;BME280;13517;59.320;18.042;2023-09-30T01:06:58;100030.16;;;14.49;100.00
25658;BME280;13517;59.320;18.042;2023-09-30T01:09:24;100027.16;;;14.52;100.00
25658;BME280;13517;59.320;18.042;2023-09-30T01:11:50;100049.75;;;14.52;100.00
25658;BME280;13517;59.320;18.042;2023-09-30T01:14:29;99973.91;;;14.10;100.00
25658;BME280;13517;59.320;18.042;2023-09-30T01:16:55;100030.00;;;14.50;100.00
25658;BME280;13517;59.320;18.042;2023-09-30T01:19:21;99980.81;;;14.14;100.00
25658;BME280;13517;59.320;18.042;2023-09-30T01:21:53;100037.16;;;14.51;100.00
25658;BME280;13517;59.320;18.042;2023-09-30T01:24:21;100045.47;;;14.50;100.00
25658;BME280;13517;59.320;18.042;2023-09-30T01:26:47;100046.44;;;14.49;100.00
25658;BME280;13517;59.320;18.042;2023-09-30T01:29:13;100033.03;;;14.47;100.00
25658;BME280;13517;59.320;18.042;2023-09-30T01:31:39;100036.00;;;14.44;100.00
25658;BME280;13517;59.320;18.042;2023-09-30T01:34:04;100028.41;;;14.28;100.00
25658;BME280;13517;59.320;18.042;2023-09-30T01:36:30;100063.03;;;14.36;100.00
25658;BME280;13517;59.320;18.042;2023-09-30T01:38:55;100061.00;;;14.28;100.00
25658;BME280;13517;59.320;18.042;2023-09-30T01:41:22;99988.72;;;13.76;100.00
25658;BME280;13517;59.320;18.042;2023-09-30T01:43:48;99994.16;;;13.76;100.00
25658;BME280;13517;59.320;18.042;2023-09-30T01:46:13;100066.59;;;14.16;100.00
25658;BME280;13517;59.320;18.042;2023-09-30T01:48:39;100004.16;;;13.75;100.00
25658;BME280;13517;59.320;18.042;2023-09-30T01:51:04;100064.53;;;14.09;100.00
25658;BME280;13517;59.320;18.042;2023-09-30T01:53:30;99952.31;;;13.38;100.00
25658;BME280;13517;59.320;18.042;2023-09-30T01:55:55;100065.81;;;13.95;100.00
25658;BME280;13517;59.320;18.042;2023-09-30T01:58:21;100071.91;;;13.87;100.00
25658;BME280;13517;59.320;18.042;2023-09-30T02:00:46;100084.44;;;13.78;100.00
25658;BME280;13517;59.320;18.042;2023-09-30T02:03:11;100075.28;;;13.69;100.00
25658;BME280;13517;59.320;18.042;2023-09-30T02:05:38;100066.97;;;13.61;100.00
25658;BME280;13517;59.320;18.042;2023-09-30T02:08:04;100082.38;;;13.60;100.00
25658;BME280;13517;59.320;18.042;2023-09-30T02:10:31;100082.06;;;13.54;100.00
25658;BME280;13517;59.320;18.042;2023-09-30T02:12:56;100075.56;;;13.45;100.00
25658;BME280;13517;59.320;18.042;2023-09-30T02:15:22;100075.09;;;13.40;100.00
25658;BME280;13517;59.320;18.042;2023-09-30T02:17:47;100088.78;;;13.38;100.00
25658;BME280;13517;59.320;18.042;2023-09-30T02:20:14;100072.91;;;13.33;100.00
25658;BME280;13517;59.320;18.042;2023-09-30T02:22:44;100031.94;;;12.84;100.00
25658;BME280;13517;59.320;18.042;2023-09-30T02:25:10;100118.13;;;13.23;100.00
25658;BME280;13517;59.320;18.042;2023-09-30T02:27:38;100077.41;;;13.02;100.00
25658;BME280;13517;59.320;18.042;2023-09-30T02:30:04;100109.91;;;13.13;100.00
25658;BME280;13517;59.320;18.042;2023-09-30T02:32:30;100097.31;;;12.91;100.00
25658;BME280;13517;59.320;18.042;2023-09-30T02:34:58;100124.03;;;12.96;100.00
25658;BME280;13517;59.320;18.042;2023-09-30T02:37:24;100125.03;;;12.94;100.00
25658;BME280;13517;59.320;18.042;2023-09-30T02:39:49;100021.06;;;12.30;100.00
25658;BME280;13517;59.320;18.042;2023-09-30T02:42:14;100049.63;;;12.34;100.00
25658;BME280;13517;59.320;18.042;2023-09-30T02:44:40;100116.88;;;12.73;100.00
25658;BME280;13517;59.320;18.042;2023-09-30T02:47:06;100116.63;;;12.65;100.00
25658;BME280;13517;59.320;18.042;2023-09-30T02:49:34;100121.22;;;12.53;100.00
25658;BME280;13517;59.320;18.042;2023-09-30T02:51:59;100130.34;;;12.52;100.00
25658;BME280;13517;59.320;18.042;2023-09-30T02:54:25;100119.63;;;12.50;100.00
25658;BME280;13517;59.320;18.042;2023-09-30T02:56:52;100127.63;;;12.52;100.00
25658;BME280;13517;59.320;18.042;2023-09-30T02:59:17;100131.44;;;12.49;100.00
25658;BME280;13517;59.320;18.042;2023-09-30T03:01:44;100089.03;;;12.27;100.00
25658;BME280;13517;59.320;18.042;2023-09-30T03:04:10;100128.88;;;12.48;100.00
25658;BME280;13517;59.320;18.042;2023-09-30T03:06:38;100121.59;;;12.48;100.00
25658;BME280;13517;59.320;18.042;2023-09-30T03:09:04;100123.59;;;12.46;100.00
25658;BME280;13517;59.320;18.042;2023-09-30T03:11:30;100120.28;;;12.43;100.00
25658;BME280;13517;59.320;18.042;2023-09-30T03:13:56;100124.31;;;12.48;100.00
25658;BME280;13517;59.320;18.042;2023-09-30T03:16:22;100128.34;;;12.54;100.00
25658;BME280;13517;59.320;18.042;2023-09-30T03:18:49;100108.06;;;12.48;100.00
25658;BME280;13517;59.320;18.042;2023-09-30T03:21:15;100127.34;;;12.66;100.00
25658;BME280;13517;59.320;18.042;2023-09-30T03:23:41;100130.81;;;12.69;100.00
25658;BME280;13517;59.320;18.042;2023-09-30T03:26:06;100114.16;;;12.73;100.00
25658;BME280;13517;59.320;18.042;2023-09-30T03:28:38;100116.59;;;12.76;100.00
25658;BME280;13517;59.320;18.042;2023-09-30T03:31:04;100127.31;;;12.78;100.00
25658;BME280;13517;59.320;18.042;2023-09-30T03:33:33;100105.66;;;12.66;100.00
25658;BME280;13517;59.320;18.042;2023-09-30T03:35:59;100113.03;;;12.76;100.00
25658;BME280;13517;59.320;18.042;2023-09-30T03:38:25;100020.59;;;12.25;100.00
25658;BME280;13517;59.320;18.042;2023-09-30T03:40:51;100114.97;;;12.85;100.00
25658;BME280;13517;59.320;18.042;2023-09-30T03:43:19;100045.44;;;12.42;100.00
25658;BME280;13517;59.320;18.042;2023-09-30T03:45:44;100125.53;;;12.88;100.00
25658;BME280;13517;59.320;18.042;2023-09-30T03:48:10;100115.69;;;12.87;100.00
25658;BME280;13517;59.320;18.042;2023-09-30T03:50:36;100118.41;;;12.87;100.00
25658;BME280;13517;59.320;18.042;2023-09-30T03:53:04;100116.81;;;12.85;100.00
25658;BME280;13517;59.320;18.042;2023-09-30T03:55:33;100124.34;;;12.81;100.00
25658;BME280;13517;59.320;18.042;2023-09-30T03:57:59;100126.44;;;12.77;100.00
25658;BME280;13517;59.320;18.042;2023-09-30T04:00:24;100128.81;;;12.71;100.00
25658;BME280;13517;59.320;18.042;2023-09-30T04:02:50;100145.69;;;12.74;100.00
25658;BME280;13517;59.320;18.042;2023-09-30T04:05:20;100136.81;;;12.72;100.00
25658;BME280;13517;59.320;18.042;2023-09-30T04:07:51;100123.41;;;12.59;100.00
25658;BME280;13517;59.320;18.042;2023-09-30T04:10:17;100146.19;;;12.68;100.00
25658;BME280;13517;59.320;18.042;2023-09-30T04:12:42;100135.84;;;12.62;100.00
25658;BME280;13517;59.320;18.042;2023-09-30T04:15:08;100140.16;;;12.64;100.00
25658;BME280;13517;59.320;18.042;2023-09-30T04:17:37;100155.22;;;12.57;100.00
25658;BME280;13517;59.320;18.042;2023-09-30T04:20:05;100141.78;;;12.56;100.00
25658;BME280;13517;59.320;18.042;2023-09-30T04:22:33;100141.56;;;12.47;100.00
25658;BME280;13517;59.320;18.042;2023-09-30T04:25:00;100143.16;;;12.38;100.00
25658;BME280;13517;59.320;18.042;2023-09-30T04:27:26;100143.66;;;12.32;100.00
25658;BME280;13517;59.320;18.042;2023-09-30T04:29:52;100147.88;;;12.25;100.00
25658;BME280;13517;59.320;18.042;2023-09-30T04:32:18;100138.53;;;12.18;100.00
25658;BME280;13517;59.320;18.042;2023-09-30T04:34:45;100139.00;;;12.11;100.00
25658;BME280;13517;59.320;18.042;2023-09-30T04:37:12;100145.41;;;12.22;100.00
25658;BME280;13517;59.320;18.042;2023-09-30T04:39:39;100152.81;;;12.20;100.00
25658;BME280;13517;59.320;18.042;2023-09-30T04:42:04;100158.22;;;12.20;100.00
25658;BME280;13517;59.320;18.042;2023-09-30T04:44:30;100106.28;;;11.92;100.00
25658;BME280;13517;59.320;18.042;2023-09-30T04:46:57;100131.72;;;12.01;100.00
25658;BME280;13517;59.320;18.042;2023-09-30T04:49:22;100161.19;;;12.05;100.00
25658;BME280;13517;59.320;18.042;2023-09-30T04:51:48;100153.75;;;11.96;100.00
25658;BME280;13517;59.320;18.042;2023-09-30T04:54:14;100160.41;;;11.92;100.00
25658;BME280;13517;59.320;18.042;2023-09-30T04:56:40;100156.94;;;11.90;100.00
25658;BME280;13517;59.320;18.042;2023-09-30T04:59:05;100088.56;;;11.42;100.00
25658;BME280;13517;59.320;18.042;2023-09-30T05:01:30;100150.06;;;11.85;100.00
25658;BME280;13517;59.320;18.042;2023-09-30T05:03:56;100173.06;;;11.80;100.00
25658;BME280;13517;59.320;18.042;2023-09-30T05:06:22;100163.84;;;11.71;100.00
25658;BME280;13517;59.320;18.042;2023-09-30T05:08:48;100167.53;;;11.70;100.00
25658;BME280;13517;59.320;18.042;2023-09-30T05:11:14;100166.91;;;11.66;100.00
25658;BME280;13517;59.320;18.042;2023-09-30T05:13:39;100141.44;;;11.57;100.00
25658;BME280;13517;59.320;18.042;2023-09-30T05:16:04;100164.22;;;11.66;100.00
25658;BME280;13517;59.320;18.042;2023-09-30T05:18:32;100177.47;;;11.69;100.00
25658;BME280;13517;59.320;18.042;2023-09-30T05:20:58;100158.03;;;11.64;100.00
25658;BME280;13517;59.320;18.042;2023-09-30T05:23:23;100172.78;;;11.71;100.00
25658;BME280;13517;59.320;18.042;2023-09-30T05:25:49;100153.50;;;11.65;100.00
25658;BME280;13517;59.320;18.042;2023-09-30T05:28:15;100170.00;;;11.84;100.00
25658;BME280;13517;59.320;18.042;2023-09-30T05:30:40;100122.00;;;11.52;100.00
25658;BME280;13517;59.320;18.042;2023-09-30T05:33:06;100172.47;;;11.99;100.00
25658;BME280;13517;59.320;18.042;2023-09-30T05:35:31;100171.38;;;12.02;100.00
25658;BME280;13517;59.320;18.042;2023-09-30T05:37:57;100139.88;;;11.89;100.00
25658;BME280;13517;59.320;18.042;2023-09-30T05:40:23;100171.03;;;12.06;100.00
25658;BME280;13517;59.320;18.042;2023-09-30T05:42:53;100180.16;;;12.05;100.00
25658;BME280;13517;59.320;18.042;2023-09-30T05:45:19;100170.75;;;11.98;100.00
25658;BME280;13517;59.320;18.042;2023-09-30T05:47:44;100184.56;;;12.06;100.00
25658;BME280;13517;59.320;18.042;2023-09-30T05:50:10;100189.09;;;12.06;100.00
25658;BME280;13517;59.320;18.042;2023-09-30T05:52:44;100151.78;;;11.87;100.00
25658;BME280;13517;59.320;18.042;2023-09-30T05:55:12;100189.72;;;12.09;100.00
25658;BME280;13517;59.320;18.042;2023-09-30T05:57:38;100199.19;;;12.15;100.00
25658;BME280;13517;59.320;18.042;2023-09-30T06:00:05;100175.97;;;12.12;100.00
25658;BME280;13517;59.320;18.042;2023-09-30T06:02:53;100186.53;;;12.16;100.00
25658;BME280;13517;59.320;18.042;2023-09-30T06:05:19;100194.78;;;12.25;100.00
25658;BME280;13517;59.320;18.042;2023-09-30T06:07:46;100191.94;;;12.27;100.00
25658;BME280;13517;59.320;18.042;2023-09-30T06:10:11;100206.09;;;12.31;100.00
25658;BME280;13517;59.320;18.042;2023-09-30T06:12:38;100199.44;;;12.35;100.00
25658;BME280;13517;59.320;18.042;2023-09-30T06:15:04;100195.00;;;12.34;100.00
25658;BME280;13517;59.320;18.042;2023-09-30T06:17:29;100195.28;;;12.31;100.00
25658;BME280;13517;59.320;18.042;2023-09-30T06:19:56;100210.88;;;12.38;100.00
25658;BME280;13517;59.320;18.042;2023-09-30T06:22:32;100177.91;;;12.22;100.00
25658;BME280;13517;59.320;18.042;2023-09-30T06:24:57;100200.81;;;12.41;100.00
25658;BME280;13517;59.320;18.042;2023-09-30T06:27:22;100183.69;;;12.29;100.00
25658;BME280;13517;59.320;18.042;2023-09-30T06:29:48;100076.38;;;11.70;100.00
25658;BME280;13517;59.320;18.042;2023-09-30T06:32:13;100208.41;;;12.47;100.00
25658;BME280;13517;59.320;18.042;2023-09-30T06:34:40;100201.03;;;12.49;100.00
25658;BME280;13517;59.320;18.042;2023-09-30T06:37:06;100207.91;;;12.53;100.00
25658;BME280;13517;59.320;18.042;2023-09-30T06:39:31;100142.81;;;12.20;100.00
25658;BME280;13517;59.320;18.042;2023-09-30T06:41:56;100210.63;;;12.64;100.00
25658;BME280;13517;59.320;18.042;2023-09-30T06:44:22;100137.53;;;12.30;100.00
25658;BME280;13517;59.320;18.042;2023-09-30T06:46:50;100194.59;;;12.73;100.00
25658;BME280;13517;59.320;18.042;2023-09-30T06:49:16;100195.31;;;12.75;100.00
25658;BME280;13517;59.320;18.042;2023-09-30T06:51:41;100194.19;;;12.77;100.00
25658;BME280;13517;59.320;18.042;2023-09-30T06:54:07;100199.00;;;12.85;100.00
25658;BME280;13517;59.320;18.042;2023-09-30T06:56:33;100195.78;;;12.91;100.00
25658;BME280;13517;59.320;18.042;2023-09-30T06:58:58;100190.09;;;12.94;100.00
25658;BME280;13517;59.320;18.042;2023-09-30T07:01:24;100196.38;;;12.95;100.00
25658;BME280;13517;59.320;18.042;2023-09-30T07:03:50;100185.78;;;12.92;100.00
25658;BME280;13517;59.320;18.042;2023-09-30T07:06:25;100193.53;;;12.97;100.00
25658;BME280;13517;59.320;18.042;2023-09-30T07:08:52;100179.50;;;12.91;100.00
25658;BME280;13517;59.320;18.042;2023-09-30T07:11:27;100182.69;;;12.97;100.00
25658;BME280;13517;59.320;18.042;2023-09-30T07:13:53;100119.00;;;12.58;100.00
25658;BME280;13517;59.320;18.042;2023-09-30T07:16:19;100184.47;;;13.07;100.00
25658;BME280;13517;59.320;18.042;2023-09-30T07:18:44;100187.34;;;13.06;100.00
25658;BME280;13517;59.320;18.042;2023-09-30T07:21:09;100121.69;;;12.70;100.00
25658;BME280;13517;59.320;18.042;2023-09-30T07:23:35;100180.53;;;13.12;100.00
25658;BME280;13517;59.320;18.042;2023-09-30T07:26:00;100189.16;;;13.17;100.00
25658;BME280;13517;59.320;18.042;2023-09-30T07:28:25;100182.34;;;13.23;100.00
25658;BME280;13517;59.320;18.042;2023-09-30T07:30:51;100118.28;;;12.89;100.00
25658;BME280;13517;59.320;18.042;2023-09-30T07:33:17;100193.59;;;13.39;100.00
25658;BME280;13517;59.320;18.042;2023-09-30T07:35:43;100192.47;;;13.42;100.00
25658;BME280;13517;59.320;18.042;2023-09-30T07:38:08;100188.16;;;13.39;100.00
25658;BME280;13517;59.320;18.042;2023-09-30T07:40:34;100174.22;;;13.44;100.00
25658;BME280;13517;59.320;18.042;2023-09-30T07:43:00;100185.94;;;13.44;100.00
25658;BME280;13517;59.320;18.042;2023-09-30T07:45:25;100165.25;;;13.32;100.00
25658;BME280;13517;59.320;18.042;2023-09-30T07:47:51;100111.88;;;12.90;100.00
25658;BME280;13517;59.320;18.042;2023-09-30T07:50:16;100184.00;;;13.35;100.00
25658;BME280;13517;59.320;18.042;2023-09-30T07:52:42;100191.16;;;13.36;100.00
25658;BME280;13517;59.320;18.042;2023-09-30T07:55:09;100157.19;;;13.20;100.00
25658;BME280;13517;59.320;18.042;2023-09-30T07:57:34;100174.06;;;13.24;100.00
25658;BME280;13517;59.320;18.042;2023-09-30T08:00:00;100183.41;;;13.31;100.00
25658;BME280;13517;59.320;18.042;2023-09-30T08:02:28;100106.13;;;12.83;100.00
25658;BME280;13517;59.320;18.042;2023-09-30T08:04:58;100186.84;;;13.33;100.00
25658;BME280;13517;59.320;18.042;2023-09-30T08:07:25;100193.22;;;13.44;100.00
25658;BME280;13517;59.320;18.042;2023-09-30T08:09:50;100104.53;;;13.02;100.00
25658;BME280;13517;59.320;18.042;2023-09-30T08:12:15;100193.31;;;13.54;100.00
25658;BME280;13517;59.320;18.042;2023-09-30T08:14:41;100192.06;;;13.58;100.00
25658;BME280;13517;59.320;18.042;2023-09-30T08:17:09;100201.38;;;13.65;100.00
25658;BME280;13517;59.320;18.042;2023-09-30T08:19:35;100172.47;;;13.54;100.00
25658;BME280;13517;59.320;18.042;2023-09-30T08:22:01;100191.13;;;13.69;100.00
25658;BME280;13517;59.320;18.042;2023-09-30T08:24:31;100105.16;;;13.27;100.00
25658;BME280;13517;59.320;18.042;2023-09-30T08:26:56;100204.47;;;13.82;100.00
25658;BME280;13517;59.320;18.042;2023-09-30T08:29:22;100210.50;;;13.85;100.00
25658;BME280;13517;59.320;18.042;2023-09-30T08:31:48;100187.22;;;13.83;100.00
25658;BME280;13517;59.320;18.042;2023-09-30T08:34:15;100195.09;;;13.86;100.00
25658;BME280;13517;59.320;18.042;2023-09-30T08:36:42;100142.03;;;13.51;100.00
25658;BME280;13517;59.320;18.042;2023-09-30T08:39:07;100186.88;;;13.76;100.00
25658;BME280;13517;59.320;18.042;2023-09-30T08:41:34;100162.91;;;13.60;100.00
25658;BME280;13517;59.320;18.042;2023-09-30T08:44:01;100195.03;;;13.76;100.00
25658;BME280;13517;59.320;18.042;2023-09-30T08:46:33;100100.31;;;13.30;100.00
25658;BME280;13517;59.320;18.042;2023-09-30T08:49:01;100073.84;;;13.23;100.00
25658;BME280;13517;59.320;18.042;2023-09-30T08:51:29;100185.41;;;13.93;100.00
25658;BME280;13517;59.320;18.042;2023-09-30T08:53:55;100189.84;;;13.94;100.00
25658;BME280;13517;59.320;18.042;2023-09-30T08:56:27;100187.72;;;13.98;100.00
25658;BME280;13517;59.320;18.042;2023-09-30T08:58:57;100188.63;;;14.08;100.00
25658;BME280;13517;59.320;18.042;2023-09-30T09:01:27;100199.22;;;14.11;100.00
25658;BME280;13517;59.320;18.042;2023-09-30T09:03:53;100208.72;;;14.27;100.00
25658;BME280;13517;59.320;18.042;2023-09-30T09:06:20;100122.94;;;13.93;100.00
25658;BME280;13517;59.320;18.042;2023-09-30T09:08:46;100205.94;;;14.48;100.00
25658;BME280;13517;59.320;18.042;2023-09-30T09:11:12;100143.75;;;14.14;100.00
25658;BME280;13517;59.320;18.042;2023-09-30T09:13:50;100091.84;;;13.97;100.00
25658;BME280;13517;59.320;18.042;2023-09-30T09:16:18;100196.69;;;14.61;100.00
25658;BME280;13517;59.320;18.042;2023-09-30T09:18:44;100195.56;;;14.73;100.00
25658;BME280;13517;59.320;18.042;2023-09-30T09:21:20;100205.13;;;14.67;100.00
25658;BME280;13517;59.320;18.042;2023-09-30T09:23:49;100193.69;;;14.64;100.00
25658;BME280;13517;59.320;18.042;2023-09-30T09:26:25;100209.31;;;14.71;100.00
25658;BME280;13517;59.320;18.042;2023-09-30T09:29:02;100205.19;;;14.77;100.00
25658;BME280;13517;59.320;18.042;2023-09-30T09:31:30;100198.50;;;14.81;100.00
25658;BME280;13517;59.320;18.042;2023-09-30T09:33:57;100198.75;;;14.78;100.00
25658;BME280;13517;59.320;18.042;2023-09-30T09:36:39;100191.13;;;14.72;100.00
25658;BME280;13517;59.320;18.042;2023-09-30T09:39:05;100197.50;;;14.92;100.00
25658;BME280;13517;59.320;18.042;2023-09-30T09:41:31;100191.06;;;15.03;100.00
25658;BME280;13517;59.320;18.042;2023-09-30T09:43:59;100201.22;;;15.01;100.00
25658;BME280;13517;59.320;18.042;2023-09-30T09:46:24;100177.56;;;14.82;100.00
25658;BME280;13517;59.320;18.042;2023-09-30T09:48:52;100201.06;;;14.93;100.00
25658;BME280;13517;59.320;18.042;2023-09-30T09:51:20;100200.06;;;14.94;100.00
25658;BME280;13517;59.320;18.042;2023-09-30T09:53:46;100196.34;;;14.85;100.00
25658;BME280;13517;59.320;18.042;2023-09-30T09:56:15;100192.75;;;14.84;100.00
25658;BME280;13517;59.320;18.042;2023-09-30T09:58:42;100208.97;;;14.96;100.00
25658;BME280;13517;59.320;18.042;2023-09-30T10:01:09;100202.66;;;14.95;100.00
25658;BME280;13517;59.320;18.042;2023-09-30T10:03:36;100205.06;;;14.98;100.00
25658;BME280;13517;59.320;18.042;2023-09-30T10:06:03;100197.34;;;14.94;100.00
25658;BME280;13517;59.320;18.042;2023-09-30T10:08:41;100209.25;;;15.03;100.00
25658;BME280;13517;59.320;18.042;2023-09-30T10:11:08;100150.63;;;14.59;100.00
25658;BME280;13517;59.320;18.042;2023-09-30T10:13:57;100206.63;;;14.91;100.00
25658;BME280;13517;59.320;18.042;2023-09-30T10:19:06;100203.50;;;14.86;100.00
25658;BME280;13517;59.320;18.042;2023-09-30T10:21:32;100164.28;;;14.79;100.00
25658;BME280;13517;59.320;18.042;2023-09-30T10:30:07;100214.69;;;15.22;100.00
25658;BME280;13517;59.320;18.042;2023-09-30T10:40:49;100222.56;;;15.55;100.00
25658;BME280;13517;59.320;18.042;2023-09-30T10:43:40;100210.41;;;15.59;100.00
25658;BME280;13517;59.320;18.042;2023-09-30T10:48:51;100206.66;;;15.60;100.00
25658;BME280;13517;59.320;18.042;2023-09-30T10:51:18;100212.69;;;15.54;100.00
25658;BME280;13517;59.320;18.042;2023-09-30T10:53:48;100214.13;;;15.38;100.00
25658;BME280;13517;59.320;18.042;2023-09-30T10:56:14;100235.47;;;15.23;100.00
25658;BME280;13517;59.320;18.042;2023-09-30T10:58:50;100229.56;;;15.08;100.00
25658;BME280;13517;59.320;18.042;2023-09-30T11:01:18;100197.19;;;14.86;100.00
25658;BME280;13517;59.320;18.042;2023-09-30T11:03:45;100228.22;;;14.83;100.00
25658;BME280;13517;59.320;18.042;2023-09-30T11:06:14;100196.22;;;14.46;100.00
25658;BME280;13517;59.320;18.042;2023-09-30T11:08:51;100221.78;;;14.43;100.00
25658;BME280;13517;59.320;18.042;2023-09-30T11:11:16;100244.44;;;14.53;100.00
25658;BME280;13517;59.320;18.042;2023-09-30T11:13:42;100240.81;;;14.43;100.00
25658;BME280;13517;59.320;18.042;2023-09-30T11:16:08;100227.94;;;14.45;100.00
25658;BME280;13517;59.320;18.042;2023-09-30T11:18:33;100250.00;;;14.52;100.00
25658;BME280;13517;59.320;18.042;2023-09-30T11:21:07;100238.44;;;14.50;100.00
25658;BME280;13517;59.320;18.042;2023-09-30T11:23:33;100236.56;;;14.50;100.00
25658;BME280;13517;59.320;18.042;2023-09-30T11:25:58;100237.09;;;14.44;100.00
25658;BME280;13517;59.320;18.042;2023-09-30T11:28:25;100241.84;;;14.52;100.00
25658;BME280;13517;59.320;18.042;2023-09-30T11:30:57;100246.59;;;14.50;100.00
25658;BME280;13517;59.320;18.042;2023-09-30T11:33:22;100240.72;;;14.54;100.00
25658;BME280;13517;59.320;18.042;2023-09-30T11:36:01;100211.34;;;14.38;100.00
25658;BME280;13517;59.320;18.042;2023-09-30T11:38:31;100195.16;;;14.37;100.00
25658;BME280;13517;59.320;18.042;2023-09-30T11:41:04;100227.47;;;14.71;100.00
25658;BME280;13517;59.320;18.042;2023-09-30T11:43:33;100225.50;;;14.83;100.00
25658;BME280;13517;59.320;18.042;2023-09-30T11:46:11;100211.22;;;14.91;100.00
25658;BME280;13517;59.320;18.042;2023-09-30T11:48:37;100128.44;;;14.64;100.00
25658;BME280;13517;59.320;18.042;2023-09-30T11:51:03;100217.53;;;15.11;100.00
25658;BME280;13517;59.320;18.042;2023-09-30T11:53:30;100210.69;;;15.17;100.00
25658;BME280;13517;59.320;18.042;2023-09-30T11:55:59;100235.16;;;15.27;100.00
25658;BME280;13517;59.320;18.042;2023-09-30T11:58:27;100217.13;;;15.25;100.00
25658;BME280;13517;59.320;18.042;2023-09-30T12:00:54;100204.66;;;15.23;100.00
25658;BME280;13517;59.320;18.042;2023-09-30T12:03:19;100223.00;;;15.31;100.00
25658;BME280;13517;59.320;18.042;2023-09-30T12:05:45;100243.34;;;15.36;100.00
25658;BME280;13517;59.320;18.042;2023-09-30T12:08:11;100193.06;;;15.11;100.00
25658;BME280;13517;59.320;18.042;2023-09-30T12:10:37;100228.75;;;15.28;100.00
25658;BME280;13517;59.320;18.042;2023-09-30T12:13:02;100225.72;;;15.21;100.00
25658;BME280;13517;59.320;18.042;2023-09-30T12:15:28;100232.47;;;15.17;100.00
25658;BME280;13517;59.320;18.042;2023-09-30T12:17:54;100229.44;;;15.10;100.00
25658;BME280;13517;59.320;18.042;2023-09-30T12:20:19;100223.53;;;15.05;100.00
25658;BME280;13517;59.320;18.042;2023-09-30T12:22:45;100243.06;;;15.30;100.00
25658;BME280;13517;59.320;18.042;2023-09-30T12:25:11;100231.59;;;15.46;100.00
25658;BME280;13517;59.320;18.042;2023-09-30T12:27:36;100257.06;;;15.45;100.00
25658;BME280;13517;59.320;18.042;2023-09-30T12:30:04;100238.31;;;15.32;100.00
25658;BME280;13517;59.320;18.042;2023-09-30T12:32:29;100241.78;;;15.24;100.00
25658;BME280;13517;59.320;18.042;2023-09-30T12:34:55;100233.63;;;15.24;100.00
25658;BME280;13517;59.320;18.042;2023-09-30T12:37:20;100227.28;;;15.14;100.00
25658;BME280;13517;59.320;18.042;2023-09-30T12:39:45;100239.91;;;15.24;100.00
25658;BME280;13517;59.320;18.042;2023-09-30T12:42:11;100249.91;;;15.34;100.00
25658;BME280;13517;59.320;18.042;2023-09-30T12:44:38;100205.53;;;15.23;100.00
25658;BME280;13517;59.320;18.042;2023-09-30T12:47:04;100228.59;;;15.49;100.00
25658;BME280;13517;59.320;18.042;2023-09-30T12:49:31;100229.03;;;15.54;100.00